createdAt,value
2022-08-09T00:00:20.793Z,16.76
2022-08-09T00:02:49.925Z,16.72
2022-08-09T00:06:18.957Z,16.72
2022-08-09T00:08:11.295Z,16.70
2022-08-09T00:10:40.815Z,16.62
2022-08-09T00:13:17.522Z,16.64
2022-08-09T00:15:59.198Z,16.63
2022-08-09T00:18:35.768Z,16.54
2022-08-09T00:21:05.037Z,16.48
2022-08-09T00:23:54.986Z,16.41
2022-08-09T00:26:19.870Z,16.36
2022-08-09T00:28:58.557Z,16.23
2022-08-09T00:31:55.863Z,16.14
2022-08-09T00:34:14.363Z,16.08
2022-08-09T00:36:42.110Z,16.09
2022-08-09T00:40:09.429Z,16.13
2022-08-09T00:44:14.089Z,16.14
2022-08-09T00:44:46.945Z,16.11
2022-08-09T00:47:15.629Z,16.12
2022-08-09T00:49:43.803Z,16.03
2022-08-09T00:52:30.199Z,15.99
2022-08-09T00:55:00.349Z,15.97
2022-08-09T00:57:34.300Z,15.91
2022-08-09T01:00:21.784Z,15.88
2022-08-09T01:02:57.888Z,15.84
2022-08-09T01:05:51.516Z,15.81
2022-08-09T01:08:48.988Z,15.78
2022-08-09T01:11:58.595Z,15.69
2022-08-09T01:14:32.258Z,15.57
2022-08-09T01:17:09.162Z,15.43
2022-08-09T01:20:01.703Z,15.45
2022-08-09T01:24:01.078Z,15.40
2022-08-09T01:26:09.847Z,15.37
2022-08-09T01:28:41.858Z,15.39
2022-08-09T01:32:30.058Z,15.36
2022-08-09T01:34:06.548Z,15.40
2022-08-09T01:36:38.730Z,15.35
2022-08-09T01:39:06.859Z,15.34
2022-08-09T01:41:53.701Z,15.25
2022-08-09T01:44:29.978Z,15.17
2022-08-09T01:46:59.948Z,15.15
2022-08-09T01:49:38.818Z,15.12
2022-08-09T01:52:09.363Z,15.09
2022-08-09T01:54:47.385Z,15.05
2022-08-09T01:57:23.778Z,15.04
2022-08-09T02:00:00.167Z,15.04
2022-08-09T02:02:32.041Z,15.13
2022-08-09T02:05:05.588Z,15.14
2022-08-09T02:08:39.589Z,15.26
2022-08-09T02:10:40.200Z,15.27
2022-08-09T02:13:12.557Z,15.32
2022-08-09T02:15:50.350Z,15.36
2022-08-09T02:18:23.056Z,15.35
2022-08-09T02:20:56.479Z,15.33
2022-08-09T02:23:27.919Z,15.34
2022-08-09T02:26:01.316Z,15.33
2022-08-09T02:28:37.360Z,15.35
2022-08-09T02:31:27.933Z,15.31
2022-08-09T02:34:07.043Z,15.31
2022-08-09T02:36:43.341Z,15.35
2022-08-09T02:39:20.109Z,15.33
2022-08-09T02:42:04.973Z,15.22
2022-08-09T02:44:36.200Z,15.24
2022-08-09T02:47:11.311Z,15.24
2022-08-09T02:50:02.573Z,15.23
2022-08-09T02:52:49.763Z,15.20
2022-08-09T02:55:24.671Z,15.14
2022-08-09T02:58:36.396Z,15.11
2022-08-09T03:01:04.513Z,15.09
2022-08-09T03:04:12.842Z,15.09
2022-08-09T03:06:27.252Z,15.02
2022-08-09T03:08:56.088Z,14.97
2022-08-09T03:11:30.175Z,14.97
2022-08-09T03:14:13.206Z,14.99
2022-08-09T03:16:44.848Z,15.03
2022-08-09T03:19:14.294Z,15.09
2022-08-09T03:22:03.081Z,15.25
2022-08-09T03:24:42.696Z,15.52
2022-08-09T03:27:17.697Z,15.74
2022-08-09T03:29:58.188Z,15.82
2022-08-09T03:32:32.329Z,15.91
2022-08-09T03:35:00.396Z,15.87
2022-08-09T03:37:54.647Z,15.70
2022-08-09T03:40:17.987Z,15.64
2022-08-09T03:42:46.590Z,15.57
2022-08-09T03:45:13.793Z,15.52
2022-08-09T03:47:46.519Z,15.52
2022-08-09T03:50:18.912Z,15.58
2022-08-09T03:53:03.147Z,15.58
2022-08-09T03:55:30.237Z,15.60
2022-08-09T03:58:14.802Z,15.67
2022-08-09T04:00:47.804Z,15.76
2022-08-09T04:03:19.738Z,15.81
2022-08-09T04:06:04.573Z,15.82
2022-08-09T04:08:34.560Z,15.70
2022-08-09T04:11:02.028Z,15.57
2022-08-09T04:14:36.967Z,15.50
2022-08-09T04:16:20.659Z,15.34
2022-08-09T04:18:50.967Z,15.27
2022-08-09T04:21:17.895Z,15.27
2022-08-09T04:23:54.485Z,15.23
2022-08-09T04:26:24.580Z,15.18
2022-08-09T04:28:54.071Z,15.14
2022-08-09T04:31:26.427Z,15.15
2022-08-09T04:34:04.675Z,15.22
2022-08-09T04:36:33.680Z,15.28
2022-08-09T04:39:02.985Z,15.33
2022-08-09T04:41:32.502Z,15.41
2022-08-09T04:44:05.931Z,15.42
2022-08-09T04:46:57.374Z,15.47
2022-08-09T04:49:40.220Z,15.49
2022-08-09T04:52:10.779Z,15.55
2022-08-09T04:54:38.028Z,15.62
2022-08-09T04:57:04.874Z,15.68
2022-08-09T04:59:36.144Z,15.73
2022-08-09T05:02:03.235Z,15.83
2022-08-09T05:04:30.854Z,15.90
2022-08-09T05:06:58.358Z,15.87
2022-08-09T05:09:25.194Z,15.96
2022-08-09T05:12:09.784Z,15.99
2022-08-09T05:14:39.226Z,16.11
2022-08-09T05:17:15.282Z,16.18
2022-08-09T05:19:56.953Z,16.29
2022-08-09T05:22:36.084Z,16.44
2022-08-09T05:25:11.143Z,16.61
2022-08-09T05:27:39.003Z,16.78
2022-08-09T05:30:13.580Z,16.94
2022-08-09T05:32:41.056Z,17.11
2022-08-09T05:35:11.427Z,17.31
2022-08-09T05:37:47.855Z,17.44
2022-08-09T05:40:18.361Z,17.57
2022-08-09T05:42:45.371Z,17.70
2022-08-09T05:45:14.319Z,17.78
2022-08-09T05:47:51.735Z,17.94
2022-08-09T05:50:39.963Z,18.08
2022-08-09T05:53:21.753Z,18.22
2022-08-09T05:56:00.015Z,18.37
2022-08-09T05:58:28.482Z,18.45
2022-08-09T06:00:55.147Z,18.61
2022-08-09T06:03:21.833Z,18.72
2022-08-09T06:05:57.369Z,18.87
2022-08-09T06:08:31.861Z,19.04
2022-08-09T06:10:59.232Z,19.17
2022-08-09T06:13:28.640Z,19.16
2022-08-09T06:16:04.686Z,19.13
2022-08-09T06:18:32.696Z,19.30
2022-08-09T06:21:01.078Z,19.42
2022-08-09T06:23:58.688Z,19.56
2022-08-09T06:26:20.321Z,19.79
2022-08-09T06:29:00.106Z,19.59
2022-08-09T06:31:39.341Z,19.53
2022-08-09T06:34:22.519Z,19.59
2022-08-09T06:36:59.157Z,19.57
2022-08-09T06:39:39.610Z,19.70
2022-08-09T06:42:13.838Z,19.96
2022-08-09T06:44:40.513Z,20.01
2022-08-09T06:47:08.465Z,20.17
2022-08-09T06:50:12.083Z,20.67
2022-08-09T06:52:23.687Z,20.79
2022-08-09T06:54:52.181Z,20.49
2022-08-09T06:57:25.758Z,20.58
2022-08-09T07:00:51.955Z,20.67
2022-08-09T07:02:56.101Z,20.47
2022-08-09T07:05:24.606Z,20.48
2022-08-09T07:08:11.214Z,20.54
2022-08-09T07:10:39.010Z,20.87
2022-08-09T07:13:27.878Z,21.12
2022-08-09T07:16:39.258Z,21.43
2022-08-09T07:18:39.393Z,21.52
2022-08-09T07:21:07.674Z,21.34
2022-08-09T07:23:36.222Z,21.28
2022-08-09T07:26:04.246Z,21.47
2022-08-09T07:28:34.872Z,21.57
2022-08-09T07:31:04.905Z,21.82
2022-08-09T07:33:52.795Z,21.71
2022-08-09T07:36:22.136Z,22.01
2022-08-09T07:38:58.232Z,22.27
2022-08-09T07:41:27.825Z,22.32
2022-08-09T07:44:00.050Z,22.24
2022-08-09T07:46:27.703Z,22.17
2022-08-09T07:48:59.227Z,22.35
2022-08-09T07:52:05.485Z,22.60
2022-08-09T07:54:15.547Z,22.65
2022-08-09T07:56:49.665Z,22.76
2022-08-09T07:59:34.885Z,22.86
2022-08-09T08:02:08.821Z,22.87
2022-08-09T08:04:36.643Z,22.73
2022-08-09T08:07:14.837Z,22.75
2022-08-09T08:09:55.205Z,23.33
2022-08-09T08:12:43.758Z,23.60
2022-08-09T08:15:16.450Z,23.30
2022-08-09T08:17:54.514Z,23.18
2022-08-09T08:20:30.485Z,23.19
2022-08-09T08:23:06.946Z,23.48
2022-08-09T08:25:48.377Z,23.49
2022-08-09T08:28:18.141Z,23.79
2022-08-09T08:30:52.953Z,24.00
2022-08-09T08:33:23.040Z,23.67
2022-08-09T08:35:58.537Z,23.83
2022-08-09T08:38:29.243Z,24.04
2022-08-09T08:40:57.779Z,24.04
2022-08-09T08:43:26.545Z,24.13
2022-08-09T08:46:03.695Z,24.38
2022-08-09T08:48:37.115Z,24.65
2022-08-09T08:51:04.263Z,25.12
2022-08-09T08:53:36.870Z,25.45
2022-08-09T08:56:05.126Z,25.54
2022-08-09T08:58:33.528Z,25.66
2022-08-09T09:01:08.985Z,25.95
2022-08-09T09:03:50.545Z,25.65
2022-08-09T09:06:19.588Z,25.09
2022-08-09T09:08:52.593Z,25.22
2022-08-09T09:11:20.801Z,25.38
2022-08-09T09:13:56.933Z,25.69
2022-08-09T09:16:29.867Z,26.15
2022-08-09T09:19:37.618Z,25.62
2022-08-09T09:22:04.388Z,25.33
2022-08-09T09:24:37.246Z,25.23
2022-08-09T09:27:06.115Z,25.29
2022-08-09T09:30:10.570Z,25.24
2022-08-09T09:32:34.373Z,25.61
2022-08-09T09:35:10.782Z,25.64
2022-08-09T09:37:45.492Z,25.64
2022-08-09T09:40:12.435Z,25.78
2022-08-09T09:42:46.096Z,26.41
2022-08-09T09:45:14.510Z,26.83
2022-08-09T09:47:58.283Z,26.18
2022-08-09T09:50:50.575Z,25.87
2022-08-09T09:53:43.791Z,25.41
2022-08-09T09:56:31.124Z,25.61
2022-08-09T09:58:57.558Z,25.79
2022-08-09T10:01:36.829Z,26.38
2022-08-09T10:04:22.749Z,26.42
2022-08-09T10:06:57.468Z,26.29
2022-08-09T10:09:24.360Z,26.50
2022-08-09T10:12:12.485Z,26.11
2022-08-09T10:14:48.712Z,26.15
2022-08-09T10:17:50.272Z,26.61
2022-08-09T10:20:27.171Z,27.01
2022-08-09T10:23:17.173Z,27.81
2022-08-09T10:26:07.678Z,26.99
2022-08-09T10:28:34.852Z,26.71
2022-08-09T10:34:10.208Z,27.14
2022-08-09T10:36:39.021Z,26.75
2022-08-09T10:39:16.069Z,26.89
2022-08-09T10:41:47.696Z,27.11
2022-08-09T10:44:23.009Z,27.76
2022-08-09T10:48:13.326Z,28.13
2022-08-09T10:50:04.648Z,28.61
2022-08-09T10:52:53.131Z,28.28
2022-08-09T10:55:24.491Z,27.61
2022-08-09T10:57:51.869Z,27.40
2022-08-09T11:00:31.261Z,27.21
2022-08-09T11:03:15.648Z,27.50
2022-08-09T11:06:18.693Z,28.08
2022-08-09T11:08:51.041Z,27.94
2022-08-09T11:11:20.489Z,27.54
2022-08-09T11:13:50.554Z,27.77
2022-08-09T11:16:39.187Z,27.67
2022-08-09T11:19:10.427Z,27.16
2022-08-09T11:22:05.244Z,26.89
2022-08-09T11:25:05.631Z,27.58
2022-08-09T11:28:03.534Z,28.44
2022-08-09T11:30:33.463Z,28.26
2022-08-09T11:33:10.987Z,27.81
2022-08-09T11:35:49.502Z,27.45
2022-08-09T11:38:34.058Z,27.45
2022-08-09T11:41:38.461Z,27.88
2022-08-09T11:44:07.783Z,27.89
2022-08-09T11:46:54.722Z,27.89
2022-08-09T11:50:53.687Z,28.10
2022-08-09T11:53:16.183Z,27.86
2022-08-09T11:55:52.036Z,27.55
2022-08-09T11:58:19.806Z,27.33
2022-08-09T12:01:01.590Z,27.41
2022-08-09T12:03:55.626Z,27.43
2022-08-09T12:06:26.723Z,27.39
2022-08-09T12:09:01.223Z,27.91
2022-08-09T12:11:28.676Z,28.19
2022-08-09T12:14:07.452Z,28.15
2022-08-09T12:16:40.282Z,28.05
2022-08-09T12:19:13.106Z,27.84
2022-08-09T12:21:50.820Z,28.28
2022-08-09T12:24:25.866Z,28.52
2022-08-09T12:28:59.288Z,28.59
2022-08-09T12:30:02.006Z,28.56
2022-08-09T12:32:41.920Z,28.49
2022-08-09T12:35:12.547Z,28.35
2022-08-09T12:37:51.748Z,28.18
2022-08-09T12:40:24.881Z,27.92
2022-08-09T12:42:52.000Z,27.86
2022-08-09T12:45:33.670Z,27.81
2022-08-09T12:48:19.966Z,27.58
2022-08-09T12:50:57.800Z,27.50
2022-08-09T12:53:38.804Z,27.53
2022-08-09T12:56:43.620Z,27.52
2022-08-09T12:59:16.892Z,27.66
2022-08-09T13:01:49.947Z,28.42
2022-08-09T13:04:35.988Z,28.57
2022-08-09T13:07:13.563Z,28.07
2022-08-09T13:09:52.700Z,28.02
2022-08-09T13:12:22.361Z,28.04
2022-08-09T13:14:54.309Z,27.40
2022-08-09T13:18:03.090Z,27.78
2022-08-09T13:20:18.864Z,27.55
2022-08-09T13:23:05.163Z,27.41
2022-08-09T13:25:52.973Z,27.47
2022-08-09T13:28:33.680Z,27.99
2022-08-09T13:32:12.383Z,27.88
2022-08-09T13:33:53.036Z,27.44
2022-08-09T13:36:24.698Z,27.20
2022-08-09T13:41:52.042Z,27.14
2022-08-09T13:42:15.531Z,27.35
2022-08-09T13:44:43.692Z,27.21
2022-08-09T13:47:27.026Z,27.45
2022-08-09T13:50:12.553Z,27.62
2022-08-09T13:52:45.964Z,27.60
2022-08-09T13:55:17.756Z,27.46
2022-08-09T13:57:56.000Z,27.69
2022-08-09T14:00:28.319Z,27.72
2022-08-09T14:03:04.201Z,27.30
2022-08-09T14:05:59.765Z,27.39
2022-08-09T14:08:30.511Z,27.71
2022-08-09T14:11:00.298Z,27.73
2022-08-09T14:14:15.153Z,28.10
2022-08-09T14:16:17.726Z,27.90
2022-08-09T14:18:49.811Z,27.71
2022-08-09T14:21:23.075Z,28.01
2022-08-09T14:23:56.532Z,28.03
2022-08-09T14:26:31.696Z,27.50
2022-08-09T14:29:01.900Z,27.78
2022-08-09T14:31:49.473Z,27.78
2022-08-09T14:34:17.391Z,27.40
2022-08-09T14:36:54.299Z,27.61
2022-08-09T14:39:21.133Z,27.47
2022-08-09T14:42:07.515Z,27.26
2022-08-09T14:44:48.541Z,27.37
2022-08-09T14:47:39.878Z,27.76
2022-08-09T14:50:08.639Z,27.59
2022-08-09T14:52:37.896Z,27.76
2022-08-09T14:55:06.945Z,27.87
2022-08-09T14:57:43.233Z,27.51
2022-08-09T15:00:11.735Z,27.37
2022-08-09T15:02:38.800Z,27.29
2022-08-09T15:05:07.500Z,27.27
2022-08-09T15:07:35.356Z,27.59
2022-08-09T15:10:10.765Z,27.69
2022-08-09T15:12:45.073Z,27.51
2022-08-09T15:15:12.997Z,27.15
2022-08-09T15:17:42.620Z,27.14
2022-08-09T15:20:15.401Z,27.07
2022-08-09T15:24:01.406Z,27.12
2022-08-09T15:25:52.328Z,27.10
2022-08-09T15:28:24.043Z,26.81
2022-08-09T15:31:01.963Z,26.56
2022-08-09T15:34:17.600Z,26.44
2022-08-09T15:36:21.949Z,26.27
2022-08-09T15:38:55.347Z,26.12
2022-08-09T15:41:23.342Z,26.37
2022-08-09T15:44:02.845Z,26.69
2022-08-09T15:46:33.028Z,26.90
2022-08-09T15:49:20.612Z,26.84
2022-08-09T15:52:05.235Z,26.78
2022-08-09T15:54:44.632Z,26.71
2022-08-09T15:57:34.611Z,26.56
2022-08-09T16:00:14.298Z,26.50
2022-08-09T16:02:54.077Z,26.25
2022-08-09T16:05:22.636Z,26.20
2022-08-09T16:07:50.799Z,26.17
2022-08-09T16:10:56.284Z,26.27
2022-08-09T16:13:05.266Z,26.29
2022-08-09T16:16:10.495Z,26.29
2022-08-09T16:18:32.735Z,26.35
2022-08-09T16:20:59.469Z,26.23
2022-08-09T16:23:26.982Z,26.24
2022-08-09T16:26:01.056Z,26.07
2022-08-09T16:28:29.685Z,25.91
2022-08-09T16:30:58.936Z,25.66
2022-08-09T16:33:26.910Z,25.60
2022-08-09T16:36:00.908Z,25.54
2022-08-09T16:38:31.282Z,25.69
2022-08-09T16:40:59.039Z,25.59
2022-08-09T16:43:30.855Z,25.75
2022-08-09T16:45:57.581Z,25.80
2022-08-09T16:48:38.161Z,25.76
2022-08-09T16:51:13.632Z,25.74
2022-08-09T16:54:17.983Z,25.72
2022-08-09T16:56:33.459Z,25.70
2022-08-09T16:59:06.719Z,25.65
2022-08-09T17:01:38.686Z,25.58
2022-08-09T17:04:06.741Z,25.53
2022-08-09T17:07:04.715Z,25.52
2022-08-09T17:09:44.856Z,25.48
2022-08-09T17:12:08.542Z,25.45
2022-08-09T17:14:35.430Z,25.44
2022-08-09T17:17:25.949Z,25.42
2022-08-09T17:20:30.596Z,25.35
2022-08-09T17:22:50.313Z,25.35
2022-08-09T17:25:20.361Z,25.27
2022-08-09T17:27:54.469Z,25.17
2022-08-09T17:30:28.896Z,25.11
2022-08-09T17:33:04.794Z,25.04
2022-08-09T17:35:34.869Z,24.92
2022-08-09T17:38:11.282Z,24.84
2022-08-09T17:40:41.537Z,24.79
2022-08-09T17:43:34.889Z,24.76
2022-08-09T17:46:04.390Z,24.71
2022-08-09T17:48:39.791Z,24.66
2022-08-09T17:51:18.087Z,24.59
2022-08-09T17:53:55.291Z,24.57
2022-08-09T17:56:27.218Z,24.49
2022-08-09T17:58:55.716Z,24.44
2022-08-09T18:01:23.680Z,24.39
2022-08-09T18:03:52.579Z,24.32
2022-08-09T18:06:31.647Z,24.32
2022-08-09T18:09:03.221Z,24.31
2022-08-09T18:12:05.216Z,24.21
2022-08-09T18:14:20.678Z,24.12
2022-08-09T18:16:48.792Z,24.05
2022-08-09T18:21:01.751Z,23.98
2022-08-09T18:22:04.285Z,23.96
2022-08-09T18:24:31.298Z,23.89
2022-08-09T18:27:01.402Z,23.82
2022-08-09T18:30:38.040Z,23.67
2022-08-09T18:32:19.025Z,23.50
2022-08-09T18:34:46.058Z,23.39
2022-08-09T18:37:48.119Z,23.38
2022-08-09T18:40:02.765Z,23.30
2022-08-09T18:42:30.465Z,23.17
2022-08-09T18:45:01.053Z,22.93
2022-08-09T18:47:37.176Z,22.64
2022-08-09T18:50:05.934Z,22.57
2022-08-09T18:52:36.191Z,22.52
2022-08-09T18:55:04.979Z,22.48
2022-08-09T18:57:38.592Z,22.47
2022-08-09T19:00:11.822Z,22.43
2022-08-09T19:02:43.659Z,22.44
2022-08-09T19:05:19.799Z,22.47
2022-08-09T19:07:59.319Z,22.38
2022-08-09T19:10:37.353Z,22.25
2022-08-09T19:13:23.216Z,22.08
2022-08-09T19:15:58.605Z,21.98
2022-08-09T19:18:33.925Z,21.89
2022-08-09T19:21:05.473Z,21.87
2022-08-09T19:24:37.975Z,21.85
2022-08-09T19:26:31.251Z,21.88
2022-08-09T19:29:01.658Z,21.91
2022-08-09T19:31:30.433Z,21.93
2022-08-09T19:34:21.552Z,21.91
2022-08-09T19:36:51.795Z,21.90
2022-08-09T19:39:43.944Z,21.82
2022-08-09T19:42:08.574Z,21.77
2022-08-09T19:44:37.035Z,21.64
2022-08-09T19:47:04.093Z,21.54
2022-08-09T19:50:10.139Z,21.44
2022-08-09T19:52:18.279Z,21.37
2022-08-09T19:54:45.622Z,21.39
2022-08-09T19:57:13.121Z,21.33
2022-08-09T20:00:05.787Z,21.24
2022-08-09T20:04:11.549Z,21.32
2022-08-09T20:05:16.670Z,21.37
2022-08-09T20:07:59.181Z,21.37
2022-08-09T20:10:36.446Z,21.24
2022-08-09T20:13:06.345Z,21.14
2022-08-09T20:16:35.606Z,21.20
2022-08-09T20:18:22.792Z,21.01
2022-08-09T20:20:55.915Z,20.93
2022-08-09T20:23:23.915Z,20.86
2022-08-09T20:25:53.545Z,20.73
2022-08-09T20:28:34.365Z,20.76
2022-08-09T20:31:09.279Z,20.69
2022-08-09T20:33:41.190Z,20.68
2022-08-09T20:36:12.432Z,20.70
2022-08-09T20:41:35.098Z,20.75
2022-08-09T20:44:10.236Z,20.74
2022-08-09T20:46:44.733Z,20.73
2022-08-09T20:49:16.130Z,20.68
2022-08-09T20:51:50.530Z,20.72
2022-08-09T20:54:18.730Z,20.73
2022-08-09T20:56:49.761Z,20.80
2022-08-09T20:59:50.297Z,20.77
2022-08-09T21:02:17.589Z,20.76
2022-08-09T21:05:54.547Z,20.64
2022-08-09T21:07:40.666Z,20.66
2022-08-09T21:10:12.134Z,20.61
2022-08-09T21:12:40.334Z,20.55
2022-08-09T21:15:15.029Z,20.63
2022-08-09T21:18:10.976Z,20.63
2022-08-09T21:20:30.721Z,20.57
2022-08-09T21:23:00.334Z,20.52
2022-08-09T21:25:56.364Z,20.52
2022-08-09T21:28:33.818Z,20.44
2022-08-09T21:31:16.681Z,20.43
2022-08-09T21:33:50.918Z,20.33
2022-08-09T21:36:25.956Z,20.29
2022-08-09T21:38:57.448Z,20.23
2022-08-09T21:42:03.975Z,20.19
2022-08-09T21:44:34.744Z,20.18
2022-08-09T21:47:11.766Z,20.13
2022-08-09T21:49:44.426Z,20.03
2022-08-09T21:52:17.161Z,20.09
2022-08-09T21:55:03.384Z,20.08
2022-08-09T21:57:39.219Z,20.00
2022-08-09T22:00:25.391Z,19.95
2022-08-09T22:02:58.072Z,19.94
2022-08-09T22:05:35.835Z,19.89
2022-08-09T22:08:13.655Z,19.82
2022-08-09T22:11:00.512Z,19.77
2022-08-09T22:13:37.391Z,19.73
2022-08-09T22:16:07.614Z,19.68
2022-08-09T22:18:37.292Z,19.71
2022-08-09T22:21:09.497Z,19.63
2022-08-09T22:23:59.998Z,19.58
2022-08-09T22:26:35.577Z,19.55
2022-08-09T22:29:09.552Z,19.52
2022-08-09T22:31:37.483Z,19.46
2022-08-09T22:34:09.649Z,19.41
2022-08-09T22:36:45.558Z,19.36
2022-08-09T22:39:20.552Z,19.32
2022-08-09T22:42:03.963Z,19.26
2022-08-09T22:44:33.939Z,19.24
2022-08-09T22:48:18.480Z,19.25
2022-08-09T22:49:51.814Z,19.22
2022-08-09T22:52:19.863Z,19.17
2022-08-09T22:54:47.703Z,19.18
2022-08-09T22:57:15.457Z,19.22
2022-08-09T22:59:56.405Z,19.21
2022-08-09T23:02:25.313Z,19.13
2022-08-09T23:04:54.718Z,19.12
2022-08-09T23:08:23.355Z,19.13
2022-08-09T23:10:31.894Z,19.04
2022-08-09T23:12:59.168Z,19.00
2022-08-09T23:15:27.187Z,18.95
2022-08-09T23:17:55.884Z,18.90
2022-08-09T23:20:23.392Z,18.91
2022-08-09T23:22:50.034Z,18.84
2022-08-09T23:25:16.710Z,18.77
2022-08-09T23:28:14.228Z,18.81
2022-08-09T23:30:30.663Z,18.84
2022-08-09T23:32:57.407Z,18.83
2022-08-09T23:35:24.158Z,18.79
2022-08-09T23:37:50.800Z,18.74
2022-08-09T23:40:17.488Z,18.76
2022-08-09T23:42:44.307Z,18.70
2022-08-09T23:45:11.251Z,18.67
2022-08-09T23:47:57.908Z,18.61
2022-08-09T23:50:24.640Z,18.60
2022-08-09T23:52:51.385Z,18.58
2022-08-09T23:55:18.153Z,18.55
2022-08-09T23:57:56.219Z,18.53
